Time;durP1;ratioP1;P1;durP2;ratioP2;P2;SDS_P1;SDS_P2;PMS_P1;PMS_P2;Temp;Humidity;BMP_temperature;BMP_pressure;BME280_temperature;BME280_humidity;BME280_pressure;Samples;Min_cycle;Max_cycle;Signal;HPM_P1;HPM_P2
2022/08/28 00:01:32;;;;;;;2.07;1.50;;;;;;;16.40;64.00;101830.25;5074660;28;20024;-92
2022/08/28 00:03:58;;;;;;;1.53;1.43;;;;;;;16.36;64.32;101835.59;5073438;28;20028;-92
2022/08/28 00:06:24;;;;;;;3.33;1.60;;;;;;;16.34;64.42;101831.25;5074733;28;20027;-93
2022/08/28 00:08:49;;;;;;;2.20;1.60;;;;;;;16.33;63.77;101832.16;5074136;28;20406;-93
2022/08/28 00:11:15;;;;;;;1.60;1.40;;;;;;;16.32;64.41;101827.84;5073433;28;20040;-95
2022/08/28 00:13:40;;;;;;;2.27;1.70;;;;;;;16.30;64.16;101833.09;5074085;28;20029;-93
2022/08/28 00:16:06;;;;;;;1.50;1.40;;;;;;;16.29;64.05;101830.53;5074350;28;20021;-93
2022/08/28 00:18:31;;;;;;;1.87;1.70;;;;;;;16.26;64.90;101834.09;5073373;28;20496;-94
2022/08/28 00:20:58;;;;;;;1.90;1.52;;;;;;;16.22;64.46;101835.03;5074086;28;20024;-94
2022/08/28 00:23:24;;;;;;;2.22;1.77;;;;;;;16.14;65.28;101832.59;5073998;28;20016;-92
2022/08/28 00:25:50;;;;;;;2.85;1.98;;;;;;;16.11;65.14;101839.66;5073631;28;20032;-94
2022/08/28 00:28:16;;;;;;;1.85;1.65;;;;;;;16.08;64.71;101834.50;5074174;28;20041;-94
2022/08/28 00:30:47;;;;;;;1.50;1.40;;;;;;;16.06;64.82;101837.16;5074145;28;20048;-94
2022/08/28 00:33:23;;;;;;;1.80;1.52;;;;;;;16.02;64.89;101836.38;5073398;28;20105;-95
2022/08/28 00:35:49;;;;;;;2.22;1.67;;;;;;;15.99;65.75;101838.16;5074054;28;20029;-93
2022/08/28 00:38:18;;;;;;;2.90;1.92;;;;;;;15.94;65.40;101845.28;5073192;28;20031;-93
2022/08/28 00:40:49;;;;;;;2.45;1.73;;;;;;;15.88;65.92;101839.25;5074209;28;20025;-94
2022/08/28 00:43:24;;;;;;;2.15;1.75;;;;;;;15.86;65.60;101842.81;5073752;28;20020;-93
2022/08/28 00:45:49;;;;;;;1.55;1.45;;;;;;;15.87;65.98;101850.66;5073196;28;20109;-92
2022/08/28 00:48:14;;;;;;;2.07;1.60;;;;;;;15.85;65.20;101841.97;5073767;28;20068;-94
2022/08/28 00:53:23;;;;;;;2.70;1.60;;;;;;;15.80;65.72;101846.41;5073293;28;20036;-94
2022/08/28 00:55:49;;;;;;;1.30;1.20;;;;;;;15.78;65.94;101842.09;5073619;28;20025;-93
2022/08/28 00:58:14;;;;;;;1.80;1.43;;;;;;;15.77;65.75;101843.00;5073472;28;20020;-93
2022/08/28 01:00:40;;;;;;;1.20;1.10;;;;;;;15.77;65.62;101843.00;5072734;28;20023;-93
2022/08/28 01:03:06;;;;;;;1.33;1.20;;;;;;;15.77;65.48;101854.31;5073697;28;20070;-93
2022/08/28 01:05:34;;;;;;;1.40;1.30;;;;;;;15.78;65.62;101852.56;5073744;28;20464;-95
2022/08/28 01:08:03;;;;;;;1.27;1.17;;;;;;;15.79;65.67;101856.91;5072235;28;20328;-94
2022/08/28 01:10:31;;;;;;;1.67;1.48;;;;;;;15.77;65.99;101856.91;5074116;28;20039;-94
2022/08/28 01:12:57;;;;;;;1.88;1.60;;;;;;;15.73;65.95;101863.97;5073411;28;20044;-95
2022/08/28 01:15:35;;;;;;;1.63;1.52;;;;;;;15.70;66.08;101866.69;5073425;28;20029;-94
2022/08/28 01:18:05;;;;;;;1.38;1.25;;;;;;;15.69;65.96;101864.06;5073071;28;20059;-93
2022/08/28 01:20:32;;;;;;;1.38;1.27;;;;;;;15.68;65.91;101868.47;5073073;28;20044;-95
2022/08/28 01:23:25;;;;;;;1.67;1.38;;;;;;;15.65;66.48;101865.06;5073717;28;20380;-94
2022/08/28 01:25:51;;;;;;;2.58;1.50;;;;;;;15.60;66.42;101863.38;5073334;28;20032;-93
2022/08/28 01:28:17;;;;;;;1.40;1.30;;;;;;;15.57;67.00;101859.97;5072716;28;20077;-96
2022/08/28 01:30:45;;;;;;;2.47;1.80;;;;;;;15.51;66.96;101857.47;5073343;28;20488;-94
2022/08/28 01:33:13;;;;;;;1.88;1.65;;;;;;;15.49;67.14;101865.34;5073540;28;20029;-94
2022/08/28 01:35:43;;;;;;;2.00;1.60;;;;;;;15.44;68.33;101865.44;5073210;28;20052;-94
2022/08/28 01:38:08;;;;;;;2.25;1.65;;;;;;;15.42;68.83;101861.13;5073824;28;20058;-93
2022/08/28 01:40:39;;;;;;;2.20;1.70;;;;;;;15.39;67.10;101869.03;5073459;28;20024;-94
2022/08/28 01:43:14;;;;;;;3.90;2.13;;;;;;;15.34;67.76;101865.63;5072650;28;20024;-95
2022/08/28 01:45:43;;;;;;;2.72;2.00;;;;;;;15.33;67.90;101863.91;5073835;28;20048;-95
2022/08/28 01:48:08;;;;;;;3.72;2.20;;;;;;;15.29;68.67;101873.56;5073416;28;20365;-95
2022/08/28 01:50:34;;;;;;;2.22;1.80;;;;;;;15.26;67.90;101874.50;5073099;28;20047;-93
2022/08/28 01:53:01;;;;;;;2.20;1.70;;;;;;;15.26;67.68;101873.63;5073533;28;20036;-95
2022/08/28 01:55:27;;;;;;;1.67;1.58;;;;;;;15.26;68.46;101868.38;5072533;28;20643;-96
2022/08/28 01:57:54;;;;;;;2.88;1.70;;;;;;;15.24;67.96;101867.56;5073030;28;20051;-96
2022/08/28 02:00:20;;;;;;;;;;;;;;;15.20;68.35;101871.13;5074098;28;20020;-95
2022/08/28 02:02:47;;;;;;;4.38;2.30;;;;;;;15.14;68.90;101875.56;5072897;28;20472;-95
2022/08/28 02:05:13;;;;;;;4.38;2.13;;;;;;;15.12;69.14;101869.53;5073121;28;20024;-96
2022/08/28 02:07:38;;;;;;;3.67;2.03;;;;;;;15.10;68.92;101871.28;5072932;28;20131;-93
2022/08/28 02:10:05;;;;;;;1.97;1.70;;;;;;;15.09;68.47;101872.19;5072509;28;20025;-94
2022/08/28 02:12:31;;;;;;;2.63;1.98;;;;;;;15.09;68.12;101877.41;5076840;28;20476;-93
2022/08/28 02:14:56;;;;;;;1.80;1.47;;;;;;;15.06;69.19;101874.84;5076733;28;20104;-93
2022/08/28 02:17:21;;;;;;;1.87;1.67;;;;;;;15.06;68.23;101887.06;5076347;28;20021;-94
2022/08/28 02:19:47;;;;;;;1.60;1.40;;;;;;;15.05;68.67;101882.72;5076631;28;20296;-93
2022/08/28 02:22:12;;;;;;;2.93;1.37;;;;;;;15.03;68.51;101881.88;5076177;28;20031;-93
2022/08/28 02:24:38;;;;;;;1.70;1.27;;;;;;;15.01;68.46;101889.75;5076179;28;20476;-94
2022/08/28 02:27:04;;;;;;;1.73;1.30;;;;;;;14.97;68.81;101878.47;5076325;28;20120;-94
2022/08/28 02:29:29;;;;;;;1.27;1.17;;;;;;;14.97;68.85;101883.69;5076245;28;20040;-94
2022/08/28 02:31:54;;;;;;;1.07;1.07;;;;;;;14.95;68.57;101877.66;5075794;28;20056;-94
2022/08/28 02:34:20;;;;;;;1.43;1.10;;;;;;;14.94;68.19;101886.38;5076297;28;20029;-94
2022/08/28 02:36:46;;;;;;;2.77;1.50;;;;;;;14.92;68.43;101893.38;5076493;28;20025;-94
2022/08/28 02:39:11;;;;;;;2.45;1.70;;;;;;;14.89;68.66;101893.44;5075364;28;20031;-93
2022/08/28 02:41:36;;;;;;;1.70;1.40;;;;;;;14.87;68.50;101884.75;5075888;28;20021;-93
2022/08/28 02:44:02;;;;;;;1.87;1.60;;;;;;;14.85;68.55;101888.28;5076035;28;20040;-93
2022/08/28 02:46:28;;;;;;;3.53;2.03;;;;;;;14.77;69.45;101884.06;5075672;28;20029;-94
2022/08/28 02:48:53;;;;;;;3.70;1.80;;;;;;;14.78;69.26;101884.91;5076218;28;20490;-93
2022/08/28 02:51:18;;;;;;;4.33;2.20;;;;;;;14.71;69.83;101884.13;5076223;28;20063;-95
2022/08/28 02:53:44;;;;;;;2.57;1.83;;;;;;;14.68;69.53;101884.22;5075444;28;20043;-92
2022/08/28 02:56:10;;;;;;;2.73;1.87;;;;;;;14.64;69.43;101882.50;5074450;28;20538;-94
2022/08/28 02:58:36;;;;;;;1.92;1.63;;;;;;;14.62;69.71;101879.91;5076077;28;20025;-94
2022/08/28 03:01:05;;;;;;;1.92;1.70;;;;;;;14.61;69.21;101879.91;5074785;28;20029;-94
2022/08/28 03:03:32;;;;;;;1.98;1.70;;;;;;;14.62;69.60;101884.25;5075778;28;20544;-94
2022/08/28 03:06:01;;;;;;;1.50;1.40;;;;;;;14.59;69.69;101884.28;5074794;28;20029;-94
2022/08/28 03:08:27;;;;;;;1.77;1.60;;;;;;;14.56;69.90;101884.38;5075493;28;20049;-93
2022/08/28 03:10:53;;;;;;;1.40;1.30;;;;;;;14.51;69.46;101884.44;5075525;28;20024;-93
2022/08/28 03:13:18;;;;;;;1.77;1.33;;;;;;;14.49;69.70;101884.44;5075176;28;20020;-93
2022/08/28 03:15:45;;;;;;;1.90;1.40;;;;;;;14.48;69.52;101887.94;5075784;28;20024;-93
2022/08/28 03:18:12;;;;;;;1.15;1.05;;;;;;;14.48;69.58;101881.88;5075353;28;20024;-93
2022/08/28 03:20:38;;;;;;;1.30;1.20;;;;;;;14.45;69.30;101884.50;5074969;28;20028;-93
2022/08/28 03:25:47;;;;;;;1.50;1.25;;;;;;;14.46;70.11;101887.13;5075406;28;20124;-93
2022/08/28 03:28:12;;;;;;;1.40;1.07;;;;;;;14.44;69.44;101890.63;5074352;28;20564;-95
2022/08/28 03:30:38;;;;;;;1.83;1.70;;;;;;;14.45;69.48;101894.97;5075458;28;20033;-94
2022/08/28 03:33:04;;;;;;;2.63;1.53;;;;;;;14.43;70.18;101899.34;5075414;28;20035;-94
2022/08/28 03:35:29;;;;;;;1.53;1.23;;;;;;;14.38;69.91;101898.56;5074928;28;20035;-92
2022/08/28 03:37:54;;;;;;;1.83;1.43;;;;;;;14.34;69.84;101898.59;5074808;28;20044;-93
2022/08/28 03:40:20;;;;;;;1.67;1.43;;;;;;;14.32;70.32;101904.72;5075312;28;20119;-93
2022/08/28 03:42:46;;;;;;;1.70;1.37;;;;;;;14.30;70.02;101906.50;5074398;28;20036;-95
2022/08/28 03:45:12;;;;;;;1.35;1.25;;;;;;;14.29;70.02;101907.38;5074923;28;20032;-96
2022/08/28 03:47:40;;;;;;;1.33;1.20;;;;;;;14.26;69.88;101908.28;5074395;28;20393;-94
2022/08/28 03:50:07;;;;;;;1.40;1.20;;;;;;;14.24;69.68;101909.19;5074205;28;20086;-94
2022/08/28 03:52:32;;;;;;;1.60;1.50;;;;;;;14.23;69.83;101904.88;5074323;28;20032;-95
2022/08/28 03:54:58;;;;;;;2.03;1.57;;;;;;;14.21;69.86;101912.69;5074071;28;20357;-94
2022/08/28 03:57:23;;;;;;;1.47;1.33;;;;;;;14.18;70.06;101910.16;5074571;28;20083;-95
2022/08/28 03:59:51;;;;;;;1.77;1.30;;;;;;;14.16;70.32;101917.13;5074698;28;20540;-93
2022/08/28 04:02:18;;;;;;;1.50;1.40;;;;;;;14.13;70.33;101911.94;5073677;28;20036;-94
2022/08/28 04:04:44;;;;;;;1.60;1.50;;;;;;;14.11;70.54;101913.69;5074824;28;20020;-93
2022/08/28 04:07:09;;;;;;;1.60;1.50;;;;;;;14.08;70.51;101918.94;5073824;28;20016;-94
2022/08/28 04:09:34;;;;;;;2.40;1.40;;;;;;;14.04;71.86;101912.91;5074371;28;20044;-94
2022/08/28 04:12:00;;;;;;;1.50;1.40;;;;;;;14.00;70.70;101917.31;5074494;28;20050;-94
2022/08/28 04:14:25;;;;;;;1.83;1.40;;;;;;;13.98;70.57;101916.47;5074634;28;20024;-93
2022/08/28 04:16:50;;;;;;;1.40;1.30;;;;;;;13.98;71.06;101918.22;5073025;28;20033;-93
2022/08/28 04:19:16;;;;;;;1.23;1.10;;;;;;;13.93;70.59;101920.00;5074410;28;20024;-94
2022/08/28 04:21:41;;;;;;;1.53;1.43;;;;;;;13.92;70.84;101915.66;5073451;28;20150;-93
2022/08/28 04:24:06;;;;;;;1.80;1.50;;;;;;;13.88;70.99;101910.50;5073882;28;20037;-94
2022/08/28 04:26:35;;;;;;;1.40;1.30;;;;;;;13.88;71.17;101912.25;5075482;28;20047;-94
2022/08/28 04:29:01;;;;;;;2.65;1.50;;;;;;;13.85;71.82;101915.75;5074353;28;20055;-93
2022/08/28 04:31:27;;;;;;;1.30;1.20;;;;;;;13.84;71.70;101916.63;5073943;28;20028;-93
2022/08/28 04:33:52;;;;;;;1.53;1.33;;;;;;;13.83;71.11;101927.09;5073190;28;20099;-94
2022/08/28 04:36:18;;;;;;;1.40;1.30;;;;;;;13.84;71.23;101928.84;5074355;28;20070;-93
2022/08/28 04:38:44;;;;;;;1.33;1.20;;;;;;;13.83;72.30;101924.50;5073788;28;20024;-93
2022/08/28 04:41:13;;;;;;;1.70;1.17;;;;;;;13.81;72.07;101928.84;5073688;28;20132;-93
2022/08/28 04:43:38;;;;;;;1.25;1.15;;;;;;;13.79;71.45;101930.63;5074201;28;20020;-93
2022/08/28 04:46:06;;;;;;;1.80;1.40;;;;;;;13.77;71.34;101934.97;5073001;28;20027;-93
2022/08/28 04:48:32;;;;;;;2.00;1.30;;;;;;;13.75;71.32;101935.00;5073904;28;20530;-94
2022/08/28 04:50:57;;;;;;;1.25;1.10;;;;;;;13.75;71.55;101935.00;5077856;28;20036;-93
2022/08/28 04:53:23;;;;;;;1.73;1.30;;;;;;;13.73;71.86;101940.25;5073654;28;20056;-94
2022/08/28 04:55:50;;;;;;;1.53;1.30;;;;;;;13.71;71.68;101936.78;5074286;28;20036;-93
2022/08/28 04:58:16;;;;;;;;;;;;;;;13.71;71.59;101938.53;5073713;28;20048;-93
2022/08/28 05:00:42;;;;;;;;;;;;;;;13.70;72.74;101936.78;5074216;28;19919;-92
2022/08/28 05:03:10;;;;;;;1.98;1.50;;;;;;;13.63;72.51;101936.00;5073783;28;19908;-93
2022/08/28 05:05:52;;;;;;;1.70;1.42;;;;;;;13.58;72.04;101935.19;5073085;28;20021;-94
2022/08/28 05:08:20;;;;;;;1.88;1.33;;;;;;;13.56;72.91;101945.66;5073310;28;20090;-94
2022/08/28 05:10:46;;;;;;;1.50;1.33;;;;;;;13.55;72.37;101949.13;5074036;28;20025;-93
2022/08/28 05:13:14;;;;;;;1.73;1.43;;;;;;;13.56;72.60;101940.44;5072859;28;20035;-94
2022/08/28 05:15:41;;;;;;;1.27;1.10;;;;;;;13.56;72.54;101953.47;5072969;28;20039;-93
2022/08/28 05:18:07;;;;;;;1.15;1.05;;;;;;;13.55;72.55;101959.56;5073418;28;20032;-94
2022/08/28 05:20:37;;;;;;;1.13;1.03;;;;;;;13.56;72.84;101963.91;5073296;28;20039;-93
2022/08/28 05:23:04;;;;;;;1.85;1.60;;;;;;;13.53;72.90;101957.84;5073640;28;20031;-94
2022/08/28 05:25:34;;;;;;;2.30;1.60;;;;;;;13.56;74.65;101960.41;5073413;28;20449;-95
2022/08/28 05:27:59;;;;;;;1.58;1.40;;;;;;;13.52;73.86;101961.31;5072870;28;20037;-93
2022/08/28 05:30:24;;;;;;;1.60;1.40;;;;;;;13.51;73.16;101970.91;5073534;28;20028;-94
2022/08/28 05:32:49;;;;;;;2.80;1.50;;;;;;;13.48;73.50;101964.84;5073153;28;20455;-93
2022/08/28 05:35:15;;;;;;;1.73;1.57;;;;;;;13.48;73.46;101970.06;5072575;28;20036;-93
2022/08/28 05:37:40;;;;;;;1.87;1.50;;;;;;;13.51;72.93;101970.06;5073213;28;20027;-93
2022/08/28 05:40:06;;;;;;;1.47;1.37;;;;;;;13.53;72.98;101970.88;5073551;28;20040;-93
2022/08/28 05:42:31;;;;;;;1.42;1.30;;;;;;;13.53;73.08;101969.16;5072265;28;20530;-91
2022/08/28 05:44:58;;;;;;;1.60;1.50;;;;;;;13.55;72.78;101975.22;5073086;28;20119;-93
2022/08/28 05:47:23;;;;;;;1.17;1.10;;;;;;;13.57;73.36;101973.44;5077586;28;20052;-94
2022/08/28 05:49:49;;;;;;;0.90;0.90;;;;;;;13.60;73.12;101972.56;5076999;28;20113;-93
2022/08/28 05:52:15;;;;;;;1.37;1.27;;;;;;;13.62;72.99;101981.25;5082293;28;20552;-93
2022/08/28 05:54:40;;;;;;;1.77;1.20;;;;;;;13.62;73.35;101977.75;5082354;28;20025;-93
2022/08/28 05:57:06;;;;;;;1.43;1.33;;;;;;;13.61;73.39;101976.03;5077257;28;20047;-94
2022/08/28 05:59:31;;;;;;;1.47;1.33;;;;;;;13.57;73.06;101975.19;5077338;28;20020;-93
2022/08/28 06:01:56;;;;;;;1.40;1.30;;;;;;;13.61;73.41;101976.91;5076733;28;20484;-96
2022/08/28 06:04:26;;;;;;;1.30;1.20;;;;;;;13.65;73.38;101980.34;5077953;28;20013;-90
2022/08/28 06:06:51;;;;;;;1.02;1.00;;;;;;;13.68;73.93;101982.94;5075848;28;20640;-90
2022/08/28 06:09:20;;;;;;;1.40;1.07;;;;;;;13.72;74.27;101988.09;5073409;28;20139;-91
2022/08/28 06:11:46;;;;;;;4.60;1.60;;;;;;;13.75;74.40;101995.88;5074301;28;20028;-92
2022/08/28 06:14:16;;;;;;;1.73;1.43;;;;;;;13.78;73.85;101996.72;5075424;28;20024;-84
2022/08/28 06:16:44;;;;;;;1.65;1.55;;;;;;;13.81;74.59;101992.34;5074673;28;20024;-83
2022/08/28 06:19:11;;;;;;;1.63;1.23;;;;;;;13.85;74.19;101990.56;5075525;28;20017;-82
2022/08/28 06:21:39;;;;;;;6.70;2.22;;;;;;;13.85;75.51;101990.56;5075553;28;20031;-82
2022/08/28 06:24:04;;;;;;;3.70;1.90;;;;;;;13.88;75.10;101987.91;5074586;28;20031;-82
2022/08/28 06:26:30;;;;;;;4.97;2.00;;;;;;;13.90;75.36;101986.16;5075550;28;20107;-82
2022/08/28 06:29:04;;;;;;;2.70;2.07;;;;;;;13.96;75.25;101998.28;5074818;28;20052;-82
2022/08/28 06:31:30;;;;;;;3.72;2.03;;;;;;;13.99;75.58;101988.66;5074254;28;20029;-82
2022/08/28 06:33:57;;;;;;;2.97;2.10;;;;;;;14.03;74.17;101999.94;5074873;28;20354;-82
2022/08/28 06:36:26;;;;;;;6.13;2.70;;;;;;;14.04;76.99;101997.31;5075474;28;20096;-83
2022/08/28 06:38:51;;;;;;;5.88;2.60;;;;;;;14.05;76.77;101993.84;5077119;28;20024;-95
2022/08/28 06:41:18;;;;;;;6.87;2.87;;;;;;;14.11;77.25;102002.47;5077319;28;20029;-94
2022/08/28 06:43:43;;;;;;;;;;;;;;;14.14;77.21;102000.66;5074336;28;20032;-89
2022/08/28 06:46:09;;;;;;;7.10;2.90;;;;;;;14.19;76.06;102004.09;5075403;28;19912;-96
2022/08/28 06:48:34;;;;;;;4.20;2.33;;;;;;;14.28;75.72;102010.97;5077593;28;20154;-90
2022/08/28 06:51:18;;;;;;;5.70;2.30;;;;;;;14.41;76.44;102009.06;5073928;28;20037;-87
2022/08/28 06:53:45;;;;;;;2.38;2.10;;;;;;;14.50;75.46;102015.91;5078520;28;20039;-88
2022/08/28 06:56:14;;;;;;;4.72;2.40;;;;;;;14.59;75.36;102012.31;5076734;28;20025;-87
2022/08/28 06:58:42;;;;;;;3.97;2.40;;;;;;;14.67;76.05;102006.13;5073529;28;20062;-85
2022/08/28 07:01:29;;;;;;;6.22;2.70;;;;;;;14.79;75.36;102012.06;5058318;28;20020;-90
2022/08/28 07:03:58;;;;;;;5.47;2.80;;;;;;;14.90;75.75;102007.53;5074983;28;20024;-90
2022/08/28 07:06:23;;;;;;;4.13;2.55;;;;;;;15.02;75.08;102011.75;5077644;28;20024;-89
2022/08/28 07:09:14;;;;;;;4.90;2.30;;;;;;;15.40;75.91;102010.25;5073036;28;20059;-90
2022/08/28 07:11:42;;;;;;;2.03;1.75;;;;;;;17.40;74.56;102010.50;5075052;28;20055;-91
2022/08/28 07:14:29;;;;;;;5.63;2.42;;;;;;;20.48;61.10;102013.16;5057839;28;20032;-86
2022/08/28 07:16:55;;;;;;;4.05;2.55;;;;;;;22.28;59.67;102009.16;5073975;28;20025;-86
2022/08/28 07:19:21;;;;;;;5.80;2.40;;;;;;;23.60;54.38;102016.91;5073784;28;20028;-88
2022/08/28 07:21:59;;;;;;;5.37;2.30;;;;;;;24.42;46.98;102013.50;5074731;28;20036;-85
2022/08/28 07:24:30;;;;;;;5.70;2.40;;;;;;;24.16;53.57;102016.66;5060065;28;20047;-90
2022/08/28 07:26:56;;;;;;;3.20;2.10;;;;;;;23.47;50.77;102009.69;5072373;28;20081;-85
2022/08/28 07:29:21;;;;;;;5.80;2.50;;;;;;;22.25;53.13;102017.22;5074298;28;20040;-85
2022/08/28 07:31:55;;;;;;;2.50;1.90;;;;;;;21.34;57.22;102016.78;5074899;28;20037;-88
2022/08/28 07:34:21;;;;;;;6.28;2.45;;;;;;;20.60;57.48;102025.00;5075199;28;20020;-90
2022/08/28 07:36:47;;;;;;;7.63;2.65;;;;;;;19.79;57.82;102020.03;5074600;28;20063;-93
2022/08/28 07:39:13;;;;;;;5.13;2.57;;;;;;;19.27;58.44;102022.69;5074756;28;20381;-86
2022/08/28 07:41:41;;;;;;;5.43;2.20;;;;;;;18.91;59.14;102026.44;5072744;28;20029;-86
2022/08/28 07:46:54;;;;;;;4.07;2.05;;;;;;;18.58;61.07;102029.16;5072930;28;20032;-85
2022/08/28 07:49:19;;;;;;;3.10;2.15;;;;;;;18.50;61.37;102031.19;5069633;28;20037;-81
2022/08/28 07:51:45;;;;;;;6.70;2.40;;;;;;;18.39;61.01;102034.13;5073473;28;20032;-82
2022/08/28 07:54:11;;;;;;;6.63;2.27;;;;;;;18.27;61.19;102037.97;5075817;28;20487;-92
2022/08/28 07:56:39;;;;;;;;;;;;;;;18.10;60.62;102040.22;5080727;28;20032;-82
2022/08/28 07:59:06;;;;;;;6.40;2.50;;;;;;;17.99;60.86;102037.88;5073860;28;19912;-91
2022/08/28 08:01:37;;;;;;;7.65;2.63;;;;;;;17.90;61.67;102039.81;5073265;28;20532;-90
2022/08/28 08:04:03;;;;;;;3.60;2.20;;;;;;;18.05;61.44;102038.56;5073169;28;20033;-83
2022/08/28 08:06:31;;;;;;;10.07;2.60;;;;;;;18.14;61.27;102049.72;5073489;28;20047;-82
2022/08/28 08:08:57;;;;;;;6.43;2.30;;;;;;;18.19;60.19;102039.97;5071709;28;20135;-85
2022/08/28 08:11:22;;;;;;;5.63;2.20;;;;;;;18.21;60.75;102040.78;5073433;28;20095;-84
2022/08/28 08:13:47;;;;;;;4.97;2.10;;;;;;;18.33;60.57;102045.69;5073502;28;20212;-89
2022/08/28 08:16:33;;;;;;;3.60;2.00;;;;;;;18.50;60.93;102039.94;5073387;28;20108;-89
2022/08/28 08:18:59;;;;;;;2.42;1.75;;;;;;;18.74;61.20;102037.47;5073757;28;20024;-93
2022/08/28 08:21:35;;;;;;;5.35;2.25;;;;;;;18.85;57.93;102047.66;5073277;28;20024;-88
2022/08/28 08:24:01;;;;;;;3.90;2.10;;;;;;;18.86;58.44;102046.75;5073062;28;20385;-90
2022/08/28 08:26:27;;;;;;;6.80;2.40;;;;;;;18.97;59.27;102044.66;5073326;28;20035;-90
2022/08/28 08:28:53;;;;;;;3.22;2.00;;;;;;;19.06;59.10;102047.91;5073361;28;20297;-90
2022/08/28 08:31:31;;;;;;;4.38;2.00;;;;;;;19.07;58.33;102049.63;5073090;28;20092;-91
2022/08/28 08:34:00;;;;;;;4.30;1.90;;;;;;;18.91;58.32;102052.75;5072416;28;20040;-89
2022/08/28 08:36:26;;;;;;;3.13;1.77;;;;;;;18.83;58.84;102052.97;5073017;28;20028;-89
2022/08/28 08:38:53;;;;;;;3.20;1.85;;;;;;;18.85;59.18;102055.53;5073235;28;20094;-89
2022/08/28 08:41:27;;;;;;;2.40;1.67;;;;;;;18.86;59.00;102056.41;5073474;28;20082;-91
2022/08/28 08:44:08;;;;;;;3.17;1.80;;;;;;;18.78;58.75;102061.91;5072586;28;20028;-91
2022/08/28 08:46:51;;;;;;;2.92;1.70;;;;;;;18.85;58.28;102057.31;5073844;28;20032;-88
2022/08/28 08:49:24;;;;;;;2.83;1.60;;;;;;;18.84;57.71;102059.06;5073497;28;20480;-91
2022/08/28 08:52:11;;;;;;;1.73;1.48;;;;;;;18.84;59.00;102056.44;5071688;28;20082;-86
2022/08/28 08:54:41;;;;;;;4.10;1.58;;;;;;;19.00;58.30;102056.00;5073023;28;20028;-86
2022/08/28 08:57:11;;;;;;;3.92;1.80;;;;;;;19.10;58.08;102050.41;5072640;28;20509;-85
2022/08/28 08:59:38;;;;;;;3.38;1.75;;;;;;;19.05;57.99;102048.81;5072303;28;20074;-87
2022/08/28 09:02:12;;;;;;;1.85;1.42;;;;;;;19.06;57.71;102048.78;5072811;28;20078;-87
2022/08/28 09:04:55;;;;;;;2.75;1.50;;;;;;;19.02;56.67;102054.19;5067764;28;20083;-88
2022/08/28 09:08:01;;;;;;;2.40;1.77;;;;;;;19.14;56.45;102052.03;5069713;28;20040;-86
2022/08/28 09:10:49;;;;;;;2.25;1.80;;;;;;;19.26;55.63;102052.53;4991169;28;20022;-88
2022/08/28 09:13:25;;;;;;;4.20;1.80;;;;;;;19.29;56.81;102049.81;5052203;28;20037;-87
2022/08/28 09:15:50;;;;;;;1.60;1.48;;;;;;;19.33;56.60;102053.19;5070102;28;20039;-87
2022/08/28 09:18:22;;;;;;;1.63;1.33;;;;;;;19.36;56.89;102053.97;5072502;28;20024;-88
2022/08/28 09:20:53;;;;;;;1.85;1.40;;;;;;;19.40;56.82;102049.44;5058008;28;20287;-88
2022/08/28 09:23:22;;;;;;;3.22;1.58;;;;;;;19.62;56.04;102048.72;5058976;28;20039;-86
2022/08/28 09:26:02;;;;;;;3.85;1.52;;;;;;;19.83;55.08;102052.41;5055700;28;20025;-86
2022/08/28 09:28:36;;;;;;;1.92;1.38;;;;;;;19.99;55.13;102044.84;5076571;28;20459;-89
2022/08/28 09:31:30;;;;;;;2.72;1.60;;;;;;;20.21;54.33;102048.41;5076640;28;20111;-87
2022/08/28 09:34:16;;;;;;;3.38;1.65;;;;;;;20.36;54.36;102054.03;5075253;28;20032;-90
2022/08/28 09:36:41;;;;;;;4.40;1.70;;;;;;;20.45;53.42;102048.41;5076064;28;20400;-84
2022/08/28 09:39:22;;;;;;;3.90;1.70;;;;;;;20.46;51.72;102044.84;5075870;28;20035;-92
2022/08/28 09:44:55;;;;;;;2.63;1.63;;;;;;;20.40;53.86;102050.34;5077192;28;20086;-87
2022/08/28 09:47:47;;;;;;;3.05;1.70;;;;;;;20.48;52.83;102052.69;5075663;28;20020;-88
2022/08/28 09:50:35;;;;;;;2.53;1.67;;;;;;;20.42;51.94;102051.16;5076407;28;20035;-88
2022/08/28 09:53:10;;;;;;;3.45;1.55;;;;;;;20.50;52.97;102043.81;5076491;28;20024;-88
2022/08/28 09:55:52;;;;;;;4.68;1.80;;;;;;;20.67;50.92;102043.16;5076347;28;20028;-87
2022/08/28 09:58:17;;;;;;;3.00;1.55;;;;;;;20.82;51.24;102046.16;5076709;28;20035;-88
2022/08/28 10:00:51;;;;;;;5.80;2.27;;;;;;;21.01;49.21;102042.75;5075678;28;20020;-90
2022/08/28 10:03:22;;;;;;;2.97;1.80;;;;;;;21.21;50.57;102039.31;5076366;28;20020;-89
2022/08/28 10:06:01;;;;;;;2.22;1.52;;;;;;;21.54;49.36;102039.69;5076115;28;20032;-89
2022/08/28 10:08:44;;;;;;;2.85;1.60;;;;;;;21.79;50.59;102051.00;5075451;28;20413;-87
2022/08/28 10:11:51;;;;;;;2.85;1.70;;;;;;;22.13;49.53;102052.16;5075480;28;20479;-88
2022/08/28 10:14:41;;;;;;;2.53;1.75;;;;;;;22.16;47.16;102055.53;5075480;28;20033;-88
2022/08/28 10:17:24;;;;;;;4.57;2.17;;;;;;;21.80;48.95;102048.28;5075141;28;20035;-89
2022/08/28 10:20:18;;;;;;;2.83;1.77;;;;;;;21.54;49.45;102044.09;5075874;28;20111;-87
2022/08/28 10:23:12;;;;;;;2.17;1.60;;;;;;;21.29;50.43;102053.94;5075238;28;20017;-87
2022/08/28 10:25:52;;;;;;;1.95;1.40;;;;;;;21.19;48.88;102057.88;5076112;28;20040;-88
2022/08/28 10:28:36;;;;;;;2.20;1.38;;;;;;;21.12;50.87;102054.63;5075558;28;20062;-88
2022/08/28 10:31:39;;;;;;;2.88;1.70;;;;;;;21.08;49.80;102052.19;5075236;28;20021;-89
2022/08/28 10:34:38;;;;;;;2.45;1.55;;;;;;;21.40;49.67;102047.34;5057790;28;20033;-88
2022/08/28 10:37:17;;;;;;;5.45;1.70;;;;;;;21.54;46.89;102033.53;5075211;28;20021;-89
2022/08/28 10:40:03;;;;;;;2.03;1.58;;;;;;;21.74;48.88;102038.00;5075991;28;20043;-87
2022/08/28 10:42:36;;;;;;;2.50;1.65;;;;;;;22.00;48.03;102038.66;5076153;28;20085;-89
2022/08/28 10:45:23;;;;;;;3.17;1.67;;;;;;;22.33;45.35;102044.19;5074057;28;20039;-87
2022/08/28 10:47:56;;;;;;;4.20;1.88;;;;;;;22.58;45.22;102043.06;5075408;28;20029;-88
2022/08/28 10:50:27;;;;;;;3.28;1.70;;;;;;;22.79;46.94;102035.03;5074742;28;20021;-89
2022/08/28 10:52:59;;;;;;;2.20;1.48;;;;;;;22.82;44.66;102040.19;5074885;28;20025;-87
2022/08/28 10:55:33;;;;;;;1.88;1.40;;;;;;;22.81;46.00;102047.25;5075305;28;20484;-88
2022/08/28 10:58:03;;;;;;;3.83;1.67;;;;;;;22.67;46.53;102042.63;5074103;28;20028;-89
2022/08/28 11:00:30;;;;;;;1.90;1.40;;;;;;;22.61;47.27;102045.59;5075466;28;20028;-87
2022/08/28 11:03:05;;;;;;;1.65;1.38;;;;;;;22.57;46.79;102041.34;5074838;28;20036;-88
2022/08/28 11:05:36;;;;;;;2.08;1.38;;;;;;;22.46;46.27;102047.13;5074051;28;20524;-89
2022/08/28 11:08:07;;;;;;;3.15;1.52;;;;;;;22.31;46.08;102045.19;5074462;28;20097;-88
2022/08/28 11:10:35;;;;;;;2.97;1.42;;;;;;;22.12;45.99;102055.72;5075206;28;20024;-88
2022/08/28 11:13:01;;;;;;;2.70;1.27;;;;;;;21.96;47.08;102050.28;5073550;28;20028;-88
2022/08/28 11:15:26;;;;;;;;;;;;;;;22.06;47.54;102043.66;5075224;28;20031;-87
2022/08/28 11:17:54;;;;;;;1.30;1.17;;;;;;;22.36;47.64;102044.03;5074558;28;19990;-87
2022/08/28 11:20:24;;;;;;;1.38;0.98;;;;;;;22.76;46.73;102038.69;5073747;28;20032;-87
2022/08/28 11:23:05;;;;;;;2.92;1.60;;;;;;;22.95;45.45;102036.03;5074088;28;20032;-87
2022/08/28 11:25:40;;;;;;;2.17;1.20;;;;;;;23.07;44.94;102039.84;5073823;28;20027;-87
2022/08/28 11:28:24;;;;;;;2.17;1.35;;;;;;;23.29;43.56;102037.03;5074198;28;20106;-89
2022/08/28 11:31:05;;;;;;;1.95;1.50;;;;;;;23.34;43.92;102051.81;5073944;28;20025;-88
2022/08/28 11:33:40;;;;;;;3.47;1.48;;;;;;;23.47;43.80;102044.13;5073799;28;20117;-88
2022/08/28 11:36:31;;;;;;;1.40;1.30;;;;;;;23.56;44.45;102033.88;5073867;28;20029;-87
2022/08/28 11:39:14;;;;;;;0.80;0.80;;;;;;;23.49;44.75;102050.16;5073866;28;20092;-87
2022/08/28 11:42:18;;;;;;;0.90;0.90;;;;;;;23.38;44.75;102045.44;5076328;28;20090;-87
2022/08/28 11:44:44;;;;;;;1.23;1.13;;;;;;;23.29;44.79;102039.69;5059426;28;20043;-87
2022/08/28 11:47:45;;;;;;;1.63;1.40;;;;;;;23.40;42.52;102032.97;5073079;28;20465;-87
2022/08/28 11:50:17;;;;;;;1.88;1.50;;;;;;;23.31;43.04;102036.94;5059252;28;20051;-89
2022/08/28 11:53:11;;;;;;;2.45;1.48;;;;;;;23.08;43.90;102046.00;5073968;28;20035;-88